Time;durP1;ratioP1;P1;durP2;ratioP2;P2;SDS_P1;SDS_P2;PMS_P1;PMS_P2;Temp;Humidity;BMP_temperature;BMP_pressure;BME280_temperature;BME280_humidity;BME280_pressure;Samples;Min_cycle;Max_cycle;Signal;HPM_P1;HPM_P2
2021/06/20 00:00:15;;;;;;;4.78;4.28;;;23.00;86.00;;;;;;5106010;28;20020;-44
2021/06/20 00:02:42;;;;;;;6.63;5.18;;;22.90;86.60;;;;;;5109389;28;20439;-45
2021/06/20 00:05:11;;;;;;;6.10;5.60;;;22.90;86.90;;;;;;5105087;28;20025;-45
2021/06/20 00:07:44;;;;;;;8.05;6.22;;;22.90;87.80;;;;;;5102802;28;20041;-46
2021/06/20 00:10:11;;;;;;;7.07;6.38;;;22.90;88.40;;;;;;5107502;28;20062;-45
2021/06/20 00:12:38;;;;;;;7.32;6.45;;;22.90;89.40;;;;;;5113169;27;20034;-44
2021/06/20 00:15:07;;;;;;;7.13;6.43;;;23.00;90.10;;;;;;5109445;28;20093;-44
2021/06/20 00:17:33;;;;;;;7.75;6.25;;;22.90;90.50;;;;;;5091696;28;20020;-45
2021/06/20 00:19:58;;;;;;;8.82;6.75;;;23.00;90.90;;;;;;5087078;28;20481;-44
2021/06/20 00:22:24;;;;;;;8.45;6.90;;;23.00;91.20;;;;;;5105729;28;20038;-45
2021/06/20 00:24:49;;;;;;;10.25;7.55;;;23.00;92.00;;;;;;5107823;28;20134;-45
2021/06/20 00:27:15;;;;;;;9.25;7.47;;;23.00;92.30;;;;;;5108279;28;20027;-45
2021/06/20 00:29:40;;;;;;;15.55;7.95;;;23.00;92.80;;;;;;5104973;28;20020;-45
2021/06/20 00:32:06;;;;;;;11.35;7.82;;;22.90;93.40;;;;;;5108083;28;20020;-44
2021/06/20 00:34:32;;;;;;;9.73;8.50;;;22.90;94.00;;;;;;5100783;28;20050;-44
2021/06/20 00:36:57;;;;;;;12.50;8.77;;;22.90;94.70;;;;;;5107400;28;20476;-46
2021/06/20 00:39:23;;;;;;;11.23;8.73;;;22.90;95.40;;;;;;5104218;28;20088;-45
2021/06/20 00:41:48;;;;;;;10.77;9.27;;;22.90;96.00;;;;;;5100210;28;20027;-46
2021/06/20 00:44:14;;;;;;;11.13;9.40;;;22.90;96.80;;;;;;5115940;27;20067;-46
2021/06/20 00:46:39;;;;;;;10.52;9.38;;;22.90;97.30;;;;;;5129479;27;20481;-44
2021/06/20 00:49:05;;;;;;;14.32;10.07;;;22.90;98.10;;;;;;5108950;27;20035;-44
2021/06/20 00:51:30;;;;;;;15.95;9.63;;;22.90;98.70;;;;;;5103792;28;20103;-45
2021/06/20 00:53:56;;;;;;;12.32;10.30;;;22.80;99.40;;;;;;5108874;28;20061;-44
2021/06/20 00:56:21;;;;;;;10.85;9.80;;;22.80;99.90;;;;;;5107792;28;20031;-44
2021/06/20 00:58:48;;;;;;;12.60;9.95;;;22.80;99.90;;;;;;5097481;28;20099;-44
2021/06/20 01:01:13;;;;;;;12.88;9.90;;;22.70;99.90;;;;;;5105781;28;20570;-45
2021/06/20 01:03:39;;;;;;;12.43;10.60;;;22.70;99.90;;;;;;5108096;28;20031;-46
2021/06/20 01:06:04;;;;;;;11.80;9.70;;;22.70;99.90;;;;;;5104143;28;20023;-45
2021/06/20 01:08:30;;;;;;;11.43;10.32;;;22.60;99.90;;;;;;5106553;28;20469;-45
2021/06/20 01:10:56;;;;;;;15.73;12.18;;;22.70;99.90;;;;;;5100752;28;20159;-45
2021/06/20 01:13:22;;;;;;;14.55;13.02;;;22.60;99.90;;;;;;5098933;28;20047;-44
2021/06/20 01:15:50;;;;;;;14.98;13.18;;;22.70;99.90;;;;;;5112931;28;20561;-45
2021/06/20 01:18:20;;;;;;;18.40;13.10;;;22.70;99.90;;;;;;5112771;28;20028;-45
2021/06/20 01:20:46;;;;;;;15.23;12.70;;;22.70;99.90;;;;;;5108996;28;20035;-45
2021/06/20 01:23:11;;;;;;;15.20;12.43;;;22.70;99.90;;;;;;5102646;28;20291;-45
2021/06/20 01:25:40;;;;;;;16.90;13.02;;;22.70;99.90;;;;;;5104143;28;20138;-45
2021/06/20 01:28:09;;;;;;;14.18;12.65;;;22.70;99.90;;;;;;5098616;27;20039;-45
2021/06/20 01:30:37;;;;;;;17.70;14.23;;;22.70;99.90;;;;;;5101560;27;20016;-45
2021/06/20 01:33:06;;;;;;;18.50;13.48;;;22.60;99.90;;;;;;5100160;27;20024;-45
2021/06/20 01:35:32;;;;;;;15.45;13.85;;;22.70;99.90;;;;;;5101967;27;20028;-44
2021/06/20 01:37:59;;;;;;;17.42;13.50;;;22.70;99.90;;;;;;5102614;27;20136;-45
2021/06/20 01:40:25;;;;;;;17.83;13.35;;;22.70;99.90;;;;;;5098033;27;20437;-45
2021/06/20 01:42:52;;;;;;;19.38;14.00;;;22.60;99.90;;;;;;5098095;27;20199;-47
2021/06/20 01:45:20;;;;;;;14.52;13.02;;;22.70;99.90;;;;;;5104071;27;20045;-44
2021/06/20 01:47:46;;;;;;;14.30;12.93;;;22.60;99.90;;;;;;5098724;27;20066;-45
2021/06/20 01:50:14;;;;;;;16.15;13.52;;;22.60;99.90;;;;;;5101580;27;20055;-46
2021/06/20 01:52:41;;;;;;;20.60;14.93;;;22.60;99.90;;;;;;5096092;27;20111;-45
2021/06/20 01:55:08;;;;;;;16.40;14.68;;;22.60;99.90;;;;;;5101314;27;20024;-45
2021/06/20 01:57:36;;;;;;;15.73;14.07;;;22.60;99.90;;;;;;5097873;27;20374;-45
2021/06/20 02:00:06;;;;;;;17.02;14.35;;;22.60;99.90;;;;;;5099441;27;20055;-45
2021/06/20 02:02:32;;;;;;;16.48;14.73;;;22.60;99.90;;;;;;5101998;27;20377;-45
2021/06/20 02:04:57;;;;;;;19.00;15.60;;;22.70;99.90;;;;;;5094556;27;20020;-45
2021/06/20 02:07:27;;;;;;;21.70;15.93;;;22.60;99.90;;;;;;5101378;27;20019;-44
2021/06/20 02:09:53;;;;;;;19.98;15.30;;;22.60;99.90;;;;;;5096599;27;20442;-42
2021/06/20 02:12:22;;;;;;;22.88;15.68;;;22.60;99.90;;;;;;5107255;27;20480;-43
2021/06/20 02:14:48;;;;;;;18.35;16.20;;;22.60;99.90;;;;;;5107860;27;20461;-45
2021/06/20 02:17:29;;;;;;;17.38;15.52;;;22.60;99.90;;;;;;5111728;28;20032;-43
2021/06/20 02:19:56;;;;;;;;;;;22.60;99.90;;;;;;5101532;28;20031;-45
2021/06/20 02:22:22;;;;;;;20.40;15.07;;;22.50;99.90;;;;;;5102960;28;19908;-44
2021/06/20 02:24:48;;;;;;;20.58;16.45;;;22.50;99.90;;;;;;5104961;28;20028;-43
2021/06/20 02:27:14;;;;;;;18.48;16.08;;;22.50;99.90;;;;;;5111217;27;20023;-46
2021/06/20 02:29:41;;;;;;;21.48;16.20;;;22.50;99.90;;;;;;5103675;28;20016;-47
2021/06/20 02:32:09;;;;;;;20.60;17.17;;;22.50;99.90;;;;;;5110108;28;20115;-44
2021/06/20 02:34:35;;;;;;;19.52;16.92;;;22.40;99.90;;;;;;5098834;28;20031;-47
2021/06/20 02:37:00;;;;;;;19.67;17.50;;;22.50;99.90;;;;;;5116601;27;20434;-44
2021/06/20 02:39:26;;;;;;;18.85;16.35;;;22.40;99.90;;;;;;5098737;27;20523;-47
2021/06/20 02:41:51;;;;;;;19.67;17.52;;;22.40;99.90;;;;;;5101986;28;20026;-45
2021/06/20 02:44:18;;;;;;;20.52;18.25;;;22.40;99.90;;;;;;5124248;27;20027;-45
2021/06/20 02:46:44;;;;;;;23.42;17.85;;;22.40;99.90;;;;;;5131739;27;20030;-43
2021/06/20 02:49:10;;;;;;;20.98;17.85;;;22.40;99.90;;;;;;5110655;27;20027;-44
2021/06/20 02:51:35;;;;;;;21.33;18.38;;;22.40;99.90;;;;;;5110237;28;20027;-44
2021/06/20 02:54:01;;;;;;;22.17;18.60;;;22.50;99.90;;;;;;5110165;28;20023;-43
2021/06/20 02:56:26;;;;;;;18.42;16.08;;;22.50;99.90;;;;;;5110632;28;20038;-43
2021/06/20 02:58:52;;;;;;;22.58;18.83;;;22.50;99.90;;;;;;5105766;28;20504;-46
2021/06/20 03:01:17;;;;;;;27.50;18.70;;;22.50;99.90;;;;;;5108780;28;20485;-46
2021/06/20 03:03:44;;;;;;;20.42;18.30;;;22.50;99.90;;;;;;5105256;28;20028;-44
2021/06/20 03:06:10;;;;;;;27.85;20.40;;;22.50;99.90;;;;;;5107716;28;20028;-45
2021/06/20 03:08:35;;;;;;;24.08;19.98;;;22.60;99.90;;;;;;5109435;28;20077;-44
2021/06/20 03:11:01;;;;;;;23.88;20.15;;;22.60;99.90;;;;;;5102777;27;20032;-46
2021/06/20 03:13:28;;;;;;;24.45;20.38;;;22.60;99.90;;;;;;5111271;27;20107;-44
2021/06/20 03:15:53;;;;;;;26.58;20.13;;;22.70;99.90;;;;;;5113645;27;20051;-45
2021/06/20 03:18:19;;;;;;;30.40;21.40;;;22.70;99.90;;;;;;5109590;28;20071;-44
2021/06/20 03:20:44;;;;;;;25.88;19.92;;;22.80;99.90;;;;;;5102064;28;20062;-45
2021/06/20 03:23:11;;;;;;;25.13;22.10;;;22.70;99.90;;;;;;5109161;27;20445;-45
2021/06/20 03:25:38;;;;;;;25.17;20.05;;;22.70;99.90;;;;;;5124602;27;20022;-48
2021/06/20 03:28:04;;;;;;;24.50;21.35;;;22.70;99.90;;;;;;5111664;27;20465;-45
2021/06/20 03:30:30;;;;;;;22.88;19.38;;;22.80;99.90;;;;;;5103977;28;20028;-45
2021/06/20 03:32:55;;;;;;;28.83;20.75;;;22.80;99.90;;;;;;5110317;28;20030;-45
2021/06/20 03:35:21;;;;;;;24.20;20.02;;;22.80;99.90;;;;;;5104911;28;20098;-46
2021/06/20 03:37:46;;;;;;;27.85;21.40;;;22.80;99.90;;;;;;5103863;28;20099;-45
2021/06/20 03:40:12;;;;;;;22.38;20.00;;;22.80;99.90;;;;;;5100595;28;20052;-47
2021/06/20 03:42:38;;;;;;;24.92;21.15;;;22.80;99.90;;;;;;5098953;28;20059;-45
2021/06/20 03:45:07;;;;;;;26.38;20.02;;;22.80;99.90;;;;;;5107008;28;20028;-46
2021/06/20 03:47:33;;;;;;;28.17;20.33;;;22.80;99.90;;;;;;5108764;28;20044;-45
2021/06/20 03:49:59;;;;;;;26.02;21.05;;;22.80;99.90;;;;;;5099464;28;20474;-45
2021/06/20 03:52:24;;;;;;;23.80;21.25;;;22.80;99.90;;;;;;5109801;28;20025;-45
2021/06/20 03:54:50;;;;;;;26.27;20.38;;;22.70;99.90;;;;;;5109667;28;20299;-45
2021/06/20 03:57:20;;;;;;;32.63;20.60;;;22.70;99.90;;;;;;5109270;28;20065;-45
2021/06/20 03:59:46;;;;;;;26.85;20.65;;;22.70;99.90;;;;;;5095442;28;20118;-44
2021/06/20 04:02:12;;;;;;;24.05;20.60;;;22.70;99.90;;;;;;5098942;28;20036;-48
2021/06/20 04:04:40;;;;;;;27.15;20.52;;;22.70;99.90;;;;;;5100920;28;20038;-45
2021/06/20 04:07:06;;;;;;;27.42;18.63;;;22.70;99.90;;;;;;5104609;28;20040;-45
2021/06/20 04:09:32;;;;;;;20.92;17.13;;;22.70;99.90;;;;;;5088081;28;20424;-46
2021/06/20 04:11:58;;;;;;;20.40;15.75;;;22.70;99.90;;;;;;5094172;27;20092;-45
2021/06/20 04:14:23;;;;;;;20.65;15.82;;;22.70;99.90;;;;;;5102102;27;20027;-46
2021/06/20 04:16:49;;;;;;;21.52;17.10;;;22.70;99.90;;;;;;5098647;28;20373;-45
2021/06/20 04:19:15;;;;;;;19.95;14.95;;;22.80;99.90;;;;;;5091046;28;20043;-45
2021/06/20 04:21:41;;;;;;;21.83;15.35;;;22.90;99.90;;;;;;5091273;27;20023;-45
2021/06/20 04:24:06;;;;;;;18.65;14.30;;;22.90;99.90;;;;;;5088101;27;20028;-47
2021/06/20 04:26:32;;;;;;;15.98;12.85;;;22.90;99.90;;;;;;5090049;28;20065;-45
2021/06/20 04:28:58;;;;;;;16.13;12.70;;;22.90;99.90;;;;;;5113526;27;20034;-45
2021/06/20 04:31:23;;;;;;;13.13;11.10;;;23.00;99.90;;;;;;5125700;27;20045;-45
2021/06/20 04:33:49;;;;;;;16.45;9.73;;;23.00;99.90;;;;;;5096706;28;20031;-48
2021/06/20 04:36:14;;;;;;;10.82;8.05;;;23.00;99.90;;;;;;5099209;28;20115;-47
2021/06/20 04:38:40;;;;;;;8.80;6.03;;;23.00;99.90;;;;;;5098218;28;20034;-46
2021/06/20 04:41:09;;;;;;;10.05;5.18;;;23.00;99.90;;;;;;5093077;28;20040;-47
2021/06/20 04:43:55;;;;;;;5.53;3.90;;;23.00;99.90;;;;;;5092620;28;20037;-45
2021/06/20 04:46:37;;;;;;;6.88;4.25;;;23.00;99.90;;;;;;5087995;28;20016;-45
2021/06/20 04:49:09;;;;;;;7.70;3.60;;;23.00;99.90;;;;;;5087670;28;20452;-45
2021/06/20 04:51:40;;;;;;;10.55;3.80;;;23.00;99.90;;;;;;5089788;28;20473;-42
2021/06/20 04:54:07;;;;;;;7.28;3.50;;;23.00;99.90;;;;;;5087520;28;20040;-43
2021/06/20 04:56:32;;;;;;;13.52;4.43;;;22.80;99.90;;;;;;5098246;28;20026;-44
2021/06/20 04:58:58;;;;;;;13.45;3.95;;;22.60;99.90;;;;;;5093030;28;20036;-43
2021/06/20 05:01:24;;;;;;;20.42;6.45;;;22.30;99.90;;;;;;5091593;28;20039;-44
2021/06/20 05:03:50;;;;;;;12.90;4.50;;;21.80;99.90;;;;;;5107699;28;20016;-44
2021/06/20 05:06:16;;;;;;;15.07;4.97;;;21.40;99.90;;;;;;5102400;28;20030;-44
2021/06/20 05:08:42;;;;;;;9.98;4.50;;;21.10;99.90;;;;;;5096180;28;20012;-43
2021/06/20 05:11:07;;;;;;;10.68;4.78;;;20.80;99.90;;;;;;5092110;28;20933;-43
2021/06/20 05:13:33;;;;;;;15.00;5.28;;;20.50;99.90;;;;;;5096074;28;20030;-42
2021/06/20 05:15:59;;;;;;;13.20;4.80;;;20.50;99.90;;;;;;5089250;28;20028;-43
2021/06/20 05:18:24;;;;;;;15.50;4.90;;;20.40;99.90;;;;;;5088959;28;20401;-42
2021/06/20 05:20:50;;;;;;;14.27;5.90;;;20.30;99.90;;;;;;5103059;28;20421;-44
2021/06/20 05:23:16;;;;;;;11.93;5.43;;;20.20;99.90;;;;;;5103532;28;20024;-43
2021/06/20 05:25:42;;;;;;;17.85;6.00;;;20.10;99.90;;;;;;5097491;28;20024;-43
2021/06/20 05:28:08;;;;;;;13.63;5.25;;;20.10;99.90;;;;;;5106939;28;20455;-44
2021/06/20 05:30:33;;;;;;;12.00;5.20;;;20.10;99.90;;;;;;5095995;28;20021;-43
2021/06/20 05:32:59;;;;;;;11.48;5.68;;;20.00;99.90;;;;;;5089822;28;20016;-43
2021/06/20 05:35:24;;;;;;;13.25;5.82;;;20.00;99.90;;;;;;5090548;28;20020;-43
2021/06/20 05:37:50;;;;;;;20.45;6.22;;;19.90;99.90;;;;;;5089064;28;20012;-43
2021/06/20 05:40:16;;;;;;;13.57;6.47;;;20.00;99.90;;;;;;5097219;28;20034;-43
2021/06/20 05:42:41;;;;;;;14.60;6.63;;;20.00;99.90;;;;;;5092307;28;20028;-42
2021/06/20 05:45:07;;;;;;;11.07;5.30;;;20.00;99.90;;;;;;5091903;28;20032;-42
2021/06/20 05:47:33;;;;;;;15.80;6.78;;;19.90;99.90;;;;;;5099171;28;20077;-43
2021/06/20 05:49:58;;;;;;;15.18;7.05;;;19.90;99.90;;;;;;5092974;28;20044;-46
2021/06/20 05:52:24;;;;;;;14.23;6.43;;;20.00;99.90;;;;;;5096799;28;20053;-43
2021/06/20 05:54:50;;;;;;;9.35;5.68;;;20.10;99.90;;;;;;5111839;28;20031;-42
2021/06/20 05:57:20;;;;;;;13.30;5.75;;;20.20;99.90;;;;;;5116258;28;20024;-43
2021/06/20 05:59:46;;;;;;;11.30;5.27;;;20.20;99.90;;;;;;5099057;28;20027;-43
2021/06/20 06:02:11;;;;;;;9.50;5.50;;;20.40;99.90;;;;;;5103225;28;20023;-44
2021/06/20 06:04:37;;;;;;;11.13;6.00;;;20.50;99.90;;;;;;5105311;28;20405;-44
2021/06/20 06:07:03;;;;;;;15.35;5.65;;;20.60;99.90;;;;;;5103545;28;20142;-44
2021/06/20 06:09:29;;;;;;;15.70;6.05;;;20.70;99.90;;;;;;5096706;28;20591;-44
2021/06/20 06:11:56;;;;;;;14.18;6.10;;;20.90;99.90;;;;;;5092432;27;20044;-45
2021/06/20 06:14:22;;;;;;;8.68;5.28;;;20.90;99.90;;;;;;5091159;27;20016;-44
2021/06/20 06:16:47;;;;;;;11.98;6.20;;;21.00;99.90;;;;;;5091635;27;20270;-44
2021/06/20 06:19:15;;;;;;;13.25;5.35;;;21.10;99.90;;;;;;5093448;27;20131;-43
2021/06/20 06:21:41;;;;;;;15.00;5.38;;;21.20;99.90;;;;;;5091766;27;20065;-45
2021/06/20 06:24:07;;;;;;;9.75;4.88;;;21.30;99.90;;;;;;5093979;27;20028;-42
2021/06/20 06:26:32;;;;;;;10.05;5.00;;;21.30;99.90;;;;;;5093803;27;20054;-43
2021/06/20 06:28:58;;;;;;;12.27;5.50;;;21.40;99.90;;;;;;5107598;27;20019;-44
2021/06/20 06:31:23;;;;;;;13.70;5.70;;;21.50;99.90;;;;;;5112762;27;20370;-42
2021/06/20 06:33:49;;;;;;;17.02;6.30;;;21.50;99.90;;;;;;5100180;28;20063;-42
2021/06/20 06:36:14;;;;;;;12.05;5.75;;;21.50;99.90;;;;;;5098679;27;20071;-44
2021/06/20 06:38:40;;;;;;;12.25;5.30;;;21.50;99.90;;;;;;5095044;27;20436;-43
2021/06/20 06:41:05;;;;;;;11.52;6.00;;;21.60;99.90;;;;;;5095797;27;20398;-43
2021/06/20 06:43:31;;;;;;;11.02;5.10;;;21.50;99.90;;;;;;5093257;27;20107;-45
2021/06/20 06:45:58;;;;;;;13.45;5.88;;;21.60;99.90;;;;;;5094067;27;20095;-44
2021/06/20 06:48:23;;;;;;;8.77;5.78;;;21.60;99.90;;;;;;5094396;27;20055;-43
2021/06/20 06:50:50;;;;;;;18.67;6.57;;;21.70;99.90;;;;;;5096971;27;20531;-44
2021/06/20 06:53:15;;;;;;;15.90;5.90;;;21.80;99.90;;;;;;5101879;27;20022;-43
2021/06/20 06:55:41;;;;;;;15.57;6.57;;;21.60;99.90;;;;;;5096815;27;20107;-44
2021/06/20 06:58:06;;;;;;;16.90;6.45;;;21.50;99.90;;;;;;5082016;27;20040;-44
2021/06/20 07:00:32;;;;;;;14.50;7.03;;;21.60;99.90;;;;;;5088355;28;20074;-43
2021/06/20 07:02:58;;;;;;;10.63;5.78;;;21.60;99.90;;;;;;5088782;28;20035;-44
2021/06/20 07:05:25;;;;;;;15.30;6.35;;;21.80;99.90;;;;;;5088147;28;20421;-44
2021/06/20 07:07:51;;;;;;;13.20;6.60;;;22.00;99.90;;;;;;5087806;28;20107;-44
2021/06/20 07:10:17;;;;;;;13.55;6.07;;;22.20;99.90;;;;;;5087617;28;20556;-44
2021/06/20 07:12:43;;;;;;;16.38;6.55;;;22.20;99.90;;;;;;5113465;27;20115;-43
2021/06/20 07:15:09;;;;;;;13.95;5.82;;;22.30;99.90;;;;;;5103211;28;20115;-46
2021/06/20 07:17:35;;;;;;;11.35;6.68;;;22.30;99.90;;;;;;5103113;28;20019;-43
2021/06/20 07:20:03;;;;;;;18.85;6.45;;;22.50;99.90;;;;;;5100688;28;20031;-43
2021/06/20 07:22:29;;;;;;;13.85;6.40;;;22.60;99.90;;;;;;5109326;28;20032;-43
2021/06/20 07:24:55;;;;;;;11.82;6.57;;;22.70;99.90;;;;;;5108339;28;20077;-44
2021/06/20 07:27:20;;;;;;;11.95;6.55;;;22.90;99.90;;;;;;5108901;28;20012;-42
2021/06/20 07:29:47;;;;;;;12.45;5.85;;;23.00;99.90;;;;;;5103091;28;20538;-43
2021/06/20 07:32:14;;;;;;;10.77;6.20;;;23.10;99.90;;;;;;5110018;28;20066;-43
2021/06/20 07:34:40;;;;;;;12.82;6.32;;;23.10;99.90;;;;;;5105045;28;20195;-45
2021/06/20 07:37:05;;;;;;;14.35;5.72;;;23.20;99.90;;;;;;5110046;28;20077;-43
2021/06/20 07:39:31;;;;;;;15.68;6.93;;;23.10;99.90;;;;;;5105615;28;20032;-42
2021/06/20 07:41:57;;;;;;;10.85;6.60;;;23.30;99.90;;;;;;5094010;27;20396;-43
2021/06/20 07:44:23;;;;;;;21.15;6.90;;;23.30;99.90;;;;;;5102503;27;20480;-42
2021/06/20 07:46:48;;;;;;;15.77;7.55;;;23.30;99.90;;;;;;5121663;27;20062;-42
2021/06/20 07:49:15;;;;;;;10.05;6.25;;;23.50;99.90;;;;;;5107263;28;20067;-42
2021/06/20 07:51:41;;;;;;;13.85;7.00;;;23.60;99.90;;;;;;5098876;28;20463;-42
2021/06/20 07:54:07;;;;;;;12.30;6.65;;;23.80;99.90;;;;;;5109787;28;20023;-41
2021/06/20 07:56:32;;;;;;;13.68;6.45;;;24.00;99.90;;;;;;5099777;28;20031;-42
2021/06/20 07:58:58;;;;;;;14.73;7.50;;;23.80;99.90;;;;;;5099324;28;20023;-42
2021/06/20 08:01:25;;;;;;;19.15;7.47;;;24.00;99.90;;;;;;5110673;28;20423;-43
2021/06/20 08:03:50;;;;;;;14.15;6.60;;;24.00;99.90;;;;;;5108397;28;20764;-42
2021/06/20 08:06:16;;;;;;;20.08;6.88;;;24.30;99.90;;;;;;5106034;28;20115;-44
2021/06/20 08:08:41;;;;;;;14.52;6.90;;;24.50;99.90;;;;;;5110767;27;20011;-43
2021/06/20 08:11:07;;;;;;;15.38;6.10;;;24.70;99.90;;;;;;5103530;27;20040;-44
2021/06/20 08:13:33;;;;;;;14.57;6.07;;;25.50;99.90;;;;;;5111981;27;20051;-44
2021/06/20 08:15:58;;;;;;;8.38;5.55;;;26.70;99.90;;;;;;5110248;28;20066;-44
2021/06/20 08:18:24;;;;;;;12.07;5.13;;;28.00;99.90;;;;;;5110331;28;20031;-45
2021/06/20 08:20:49;;;;;;;12.30;5.32;;;28.90;99.90;;;;;;5100913;28;20638;-45
2021/06/20 08:23:15;;;;;;;8.73;4.53;;;29.60;99.90;;;;;;5109932;28;20031;-45
2021/06/20 08:25:40;;;;;;;6.32;4.25;;;30.10;99.90;;;;;;5111007;28;20024;-44
2021/06/20 08:28:06;;;;;;;7.70;4.32;;;31.10;98.90;;;;;;5105142;28;20032;-43
2021/06/20 08:30:32;;;;;;;9.98;4.78;;;31.80;95.90;;;;;;5110074;28;20102;-42
2021/06/20 08:32:57;;;;;;;10.82;4.22;;;31.90;95.10;;;;;;5110695;28;20028;-44
2021/06/20 08:35:23;;;;;;;9.48;4.82;;;32.00;93.80;;;;;;5100915;28;20020;-42
2021/06/20 08:37:48;;;;;;;11.25;4.65;;;32.10;93.10;;;;;;5110555;28;20035;-44
2021/06/20 08:40:15;;;;;;;13.25;4.75;;;32.50;92.00;;;;;;5099710;28;20073;-44
2021/06/20 08:42:40;;;;;;;7.10;3.97;;;32.70;90.80;;;;;;5102730;27;20077;-43
2021/06/20 08:45:06;;;;;;;9.38;3.72;;;32.70;89.90;;;;;;5126162;27;20027;-45
2021/06/20 08:47:34;;;;;;;9.32;4.40;;;32.30;87.50;;;;;;5119700;27;20040;-43
2021/06/20 08:49:59;;;;;;;11.45;4.75;;;31.50;86.40;;;;;;5105312;28;20019;-44
2021/06/20 08:52:25;;;;;;;12.20;4.45;;;30.60;90.20;;;;;;5110577;28;20097;-43
2021/06/20 08:55:11;;;;;;;11.15;5.07;;;30.50;89.90;;;;;;5110503;28;20043;-43
2021/06/20 08:57:39;;;;;;;11.90;4.47;;;30.50;90.30;;;;;;5106740;28;20627;-42
2021/06/20 09:00:10;;;;;;;11.90;4.10;;;32.00;88.90;;;;;;5106414;28;20038;-43
2021/06/20 09:02:36;;;;;;;7.18;4.28;;;33.60;83.40;;;;;;5110404;28;20123;-43
2021/06/20 09:05:05;;;;;;;10.55;4.38;;;33.80;79.10;;;;;;5103678;28;20040;-45
2021/06/20 09:07:32;;;;;;;9.80;4.17;;;34.00;79.40;;;;;;5108030;28;20027;-43
2021/06/20 09:10:09;;;;;;;6.35;3.50;;;34.80;74.10;;;;;;5100721;28;20020;-42
2021/06/20 09:12:50;;;;;;;7.95;3.80;;;35.30;73.20;;;;;;5108233;28;20035;-43
2021/06/20 09:15:20;;;;;;;9.02;3.65;;;35.30;72.90;;;;;;5107863;28;20032;-42
2021/06/20 09:17:51;;;;;;;9.52;3.25;;;34.70;70.40;;;;;;5109865;28;20051;-43
2021/06/20 09:20:17;;;;;;;8.18;3.40;;;35.20;66.90;;;;;;5106911;28;20074;-44
2021/06/20 09:22:53;;;;;;;9.52;3.92;;;34.80;69.00;;;;;;5104948;28;20059;-43
2021/06/20 09:25:27;;;;;;;7.18;3.22;;;34.90;69.60;;;;;;5108594;28;20062;-42
2021/06/20 09:27:55;;;;;;;8.80;3.35;;;35.90;67.10;;;;;;5087980;28;20028;-43
2021/06/20 09:30:22;;;;;;;8.82;3.75;;;36.60;61.90;;;;;;5106550;28;20469;-42
2021/06/20 09:33:01;;;;;;;6.65;3.03;;;35.50;62.30;;;;;;5111587;28;20410;-43
2021/06/20 09:35:44;;;;;;;5.40;3.08;;;35.40;65.00;;;;;;5112564;28;20030;-45
2021/06/20 09:38:31;;;;;;;8.10;3.00;;;35.00;64.60;;;;;;5114238;28;20067;-41
2021/06/20 09:41:07;;;;;;;8.15;3.25;;;35.00;62.80;;;;;;5104341;28;20020;-45
2021/06/20 09:43:34;;;;;;;9.35;2.70;;;35.60;59.80;;;;;;5114762;27;20027;-42
2021/06/20 09:46:01;;;;;;;5.78;3.05;;;36.20;61.90;;;;;;5112835;28;20399;-43
2021/06/20 09:48:27;;;;;;;8.18;3.10;;;36.40;56.50;;;;;;5106826;28;20019;-43
2021/06/20 09:50:53;;;;;;;6.28;3.03;;;35.50;59.50;;;;;;5110332;28;20520;-45
2021/06/20 09:53:31;;;;;;;8.80;2.95;;;36.10;59.20;;;;;;5108193;28;20069;-42
2021/06/20 09:56:16;;;;;;;6.57;3.00;;;35.90;58.40;;;;;;5113004;28;20020;-46
2021/06/20 09:58:44;;;;;;;6.25;3.28;;;35.70;57.80;;;;;;5101826;28;20105;-42
2021/06/20 10:01:18;;;;;;;10.05;3.72;;;35.20;57.50;;;;;;5101418;28;20118;-43
2021/06/20 10:03:45;;;;;;;9.38;3.40;;;34.30;60.80;;;;;;5100762;28;20082;-43
2021/06/20 10:06:12;;;;;;;9.50;3.70;;;33.90;61.50;;;;;;5094677;28;20032;-45
2021/06/20 10:08:38;;;;;;;6.95;3.20;;;33.90;61.90;;;;;;5111772;28;20011;-44
2021/06/20 10:11:04;;;;;;;5.38;2.63;;;34.30;61.60;;;;;;5105462;27;20417;-43
2021/06/20 10:13:30;;;;;;;6.20;2.50;;;34.30;62.20;;;;;;5111784;27;20110;-44
2021/06/20 10:16:11;;;;;;;5.68;3.08;;;34.90;57.20;;;;;;5103374;28;20122;-43
2021/06/20 10:18:39;;;;;;;7.70;2.80;;;34.50;57.40;;;;;;5105109;28;20471;-43
2021/06/20 10:21:05;;;;;;;7.22;2.97;;;34.50;58.40;;;;;;5105237;28;20076;-45
2021/06/20 10:23:30;;;;;;;7.15;2.83;;;35.80;59.10;;;;;;5105476;28;20032;-43
2021/06/20 10:26:05;;;;;;;9.88;2.95;;;36.70;56.10;;;;;;5099313;28;20065;-43
2021/06/20 10:28:31;;;;;;;6.35;2.83;;;36.40;53.20;;;;;;5102924;28;20095;-42
2021/06/20 10:31:08;;;;;;;8.15;2.88;;;37.20;56.30;;;;;;5099482;28;20112;-43
2021/06/20 10:33:35;;;;;;;5.00;2.88;;;36.40;53.40;;;;;;5102317;28;20039;-45
2021/06/20 10:36:03;;;;;;;8.82;2.90;;;36.80;55.70;;;;;;5085261;28;20583;-45
2021/06/20 10:38:38;;;;;;;6.80;2.85;;;36.60;56.20;;;;;;5072435;28;20032;-42
2021/06/20 10:41:05;;;;;;;4.47;2.50;;;35.10;54.80;;;;;;5089034;28;20085;-42
2021/06/20 10:43:30;;;;;;;7.30;2.95;;;35.00;57.60;;;;;;5100486;28;20028;-45
2021/06/20 10:45:56;;;;;;;8.35;2.83;;;34.70;56.70;;;;;;5101275;28;20020;-42
2021/06/20 10:48:24;;;;;;;5.72;2.95;;;34.90;57.00;;;;;;5103933;28;20134;-43
2021/06/20 10:50:55;;;;;;;7.15;3.05;;;35.00;58.80;;;;;;5109938;28;20525;-44
2021/06/20 10:53:22;;;;;;;4.35;2.38;;;35.80;57.10;;;;;;5097847;28;20024;-44
2021/06/20 10:55:52;;;;;;;4.93;2.38;;;36.30;56.40;;;;;;5102906;28;20031;-43
2021/06/20 10:58:43;;;;;;;5.80;2.88;;;36.90;52.90;;;;;;5101937;28;20035;-44
2021/06/20 11:01:11;;;;;;;5.10;2.30;;;36.90;52.70;;;;;;5110320;28;20023;-44
2021/06/20 11:03:38;;;;;;;6.13;2.75;;;37.40;53.20;;;;;;5103401;28;20028;-45
2021/06/20 11:06:07;;;;;;;6.50;2.50;;;37.10;52.30;;;;;;5107193;28;20486;-43
2021/06/20 11:08:34;;;;;;;6.53;2.58;;;38.00;51.30;;;;;;5110571;28;20072;-45
2021/06/20 11:11:16;;;;;;;7.63;2.80;;;37.70;51.10;;;;;;5102186;27;20043;-44
2021/06/20 11:13:55;;;;;;;8.23;2.70;;;37.90;49.80;;;;;;5099367;28;20035;-43
2021/06/20 11:16:31;;;;;;;6.45;2.90;;;37.60;50.40;;;;;;5109694;28;20163;-45
2021/06/20 11:19:20;;;;;;;6.70;3.17;;;37.60;51.40;;;;;;5100680;27;20032;-44
2021/06/20 11:21:50;;;;;;;6.00;3.03;;;36.10;51.40;;;;;;5102063;27;20064;-42
2021/06/20 11:24:28;;;;;;;9.40;3.22;;;35.20;56.30;;;;;;5103259;27;20035;-43
2021/06/20 11:26:54;;;;;;;10.90;3.05;;;34.90;56.30;;;;;;5100251;27;20013;-42
2021/06/20 11:29:21;;;;;;;5.50;3.00;;;34.40;55.70;;;;;;5094181;27;20023;-43
2021/06/20 11:31:54;;;;;;;7.57;3.00;;;34.30;55.10;;;;;;5114180;27;20068;-41
2021/06/20 11:34:23;;;;;;;8.93;3.10;;;35.40;56.90;;;;;;5099402;28;20469;-43
2021/06/20 11:36:49;;;;;;;6.57;3.10;;;36.10;54.10;;;;;;5104257;28;20024;-44
2021/06/20 11:39:15;;;;;;;5.72;3.28;;;36.50;54.20;;;;;;5105607;28;20606;-42
2021/06/20 11:41:50;;;;;;;9.23;3.08;;;37.00;53.20;;;;;;5097437;28;20493;-42
2021/06/20 11:44:17;;;;;;;5.88;3.00;;;36.40;53.20;;;;;;5100829;28;20038;-43
2021/06/20 11:46:45;;;;;;;7.03;3.33;;;35.80;54.80;;;;;;5112206;27;20024;-45
2021/06/20 11:49:13;;;;;;;6.45;2.95;;;35.80;56.40;;;;;;5123366;27;20023;-45
2021/06/20 11:51:47;;;;;;;10.20;3.15;;;35.30;53.90;;;;;;5110432;27;20020;-45
2021/06/20 11:54:22;;;;;;;7.47;4.05;;;34.10;54.80;;;;;;5098544;28;20059;-42
2021/06/20 11:56:50;;;;;;;7.97;3.47;;;34.20;59.40;;;;;;5099968;28;20027;-45
2021/06/20 11:59:32;;;;;;;10.27;3.50;;;34.20;58.50;;;;;;5092571;27;20028;-44
2021/06/20 12:01:58;;;;;;;6.82;3.85;;;34.10;57.80;;;;;;5092850;27;20032;-43
2021/06/20 12:04:27;;;;;;;8.70;3.92;;;33.50;57.60;;;;;;5092672;27;20037;-43
2021/06/20 12:06:53;;;;;;;6.07;3.25;;;33.40;58.40;;;;;;5098060;27;20036;-46
2021/06/20 12:09:22;;;;;;;8.57;3.17;;;33.90;58.00;;;;;;5098146;27;20054;-43
2021/06/20 12:11:56;;;;;;;7.93;3.43;;;33.80;60.20;;;;;;5098941;27;20119;-43
2021/06/20 12:14:25;;;;;;;8.05;3.67;;;33.90;60.10;;;;;;5096400;27;20056;-43
2021/06/20 12:16:51;;;;;;;5.95;3.08;;;33.80;58.50;;;;;;5097459;27;20677;-43
2021/06/20 12:19:19;;;;;;;9.70;3.85;;;33.50;59.10;;;;;;5110100;27;20034;-44
2021/06/20 12:21:45;;;;;;;6.78;4.18;;;33.40;58.30;;;;;;5101939;27;20019;-42
2021/06/20 12:24:13;;;;;;;7.47;3.95;;;33.20;60.00;;;;;;5099318;28;20039;-45
2021/06/20 12:26:50;;;;;;;10.07;3.70;;;32.90;61.30;;;;;;5088039;28;20024;-43
2021/06/20 12:29:17;;;;;;;11.50;3.38;;;32.60;61.20;;;;;;5093673;28;20059;-43
2021/06/20 12:32:01;;;;;;;7.05;3.42;;;32.30;58.60;;;;;;5093058;27;20024;-42
2021/06/20 12:34:38;;;;;;;6.43;3.40;;;31.90;62.70;;;;;;5104810;27;20028;-45
2021/06/20 12:37:03;;;;;;;5.07;3.50;;;31.70;62.00;;;;;;5097065;27;20031;-44
2021/06/20 12:39:41;;;;;;;6.50;3.60;;;31.90;63.10;;;;;;5093147;27;20020;-42